createdAt,value
2022-07-31T00:01:21.179Z,18.57
2022-07-31T00:03:47.819Z,18.66
2022-07-31T00:06:14.388Z,18.71
2022-07-31T00:08:40.891Z,18.65
2022-07-31T00:11:07.469Z,18.73
2022-07-31T00:13:56.669Z,18.77
2022-07-31T00:16:20.456Z,18.55
2022-07-31T00:18:46.984Z,18.63
2022-07-31T00:21:14.111Z,18.69
2022-07-31T00:23:41.163Z,18.81
2022-07-31T00:26:07.894Z,18.92
2022-07-31T00:28:34.416Z,18.99
2022-07-31T00:31:00.953Z,18.80
2022-07-31T00:33:27.398Z,18.87
2022-07-31T00:35:53.859Z,18.76
2022-07-31T00:38:27.981Z,18.73
2022-07-31T00:40:55.834Z,18.59
2022-07-31T00:43:22.417Z,18.50
2022-07-31T00:45:56.350Z,18.47
2022-07-31T00:48:25.898Z,18.38
2022-07-31T00:50:54.362Z,18.33
2022-07-31T00:53:20.869Z,18.34
2022-07-31T00:55:51.688Z,18.32
2022-07-31T00:58:20.001Z,18.50
2022-07-31T01:00:46.961Z,18.40
2022-07-31T01:03:14.484Z,18.17
2022-07-31T01:05:41.703Z,18.26
2022-07-31T01:08:08.179Z,18.19
2022-07-31T01:10:58.601Z,18.29
2022-07-31T01:13:50.127Z,18.29
2022-07-31T01:16:18.281Z,18.23
2022-07-31T01:18:45.336Z,18.25
2022-07-31T01:21:17.467Z,18.44
2022-07-31T01:24:08.704Z,18.41
2022-07-31T01:26:43.913Z,18.45
2022-07-31T01:29:25.499Z,18.46
2022-07-31T01:32:03.243Z,18.34
2022-07-31T01:34:39.112Z,18.30
2022-07-31T01:37:17.166Z,18.12
2022-07-31T01:39:47.330Z,17.98
2022-07-31T01:42:15.865Z,17.90
2022-07-31T01:44:44.442Z,17.99
2022-07-31T01:47:13.758Z,17.90
2022-07-31T01:49:40.651Z,17.98
2022-07-31T01:52:08.045Z,18.03
2022-07-31T01:54:35.272Z,18.10
2022-07-31T01:57:03.393Z,18.11
2022-07-31T01:59:32.817Z,18.11
2022-07-31T02:02:00.844Z,17.94
2022-07-31T02:04:28.673Z,18.05
2022-07-31T02:06:55.485Z,18.13
2022-07-31T02:09:22.965Z,17.88
2022-07-31T02:11:54.454Z,17.85
2022-07-31T02:14:32.713Z,17.73
2022-07-31T02:16:59.514Z,17.95
2022-07-31T02:19:27.063Z,18.05
2022-07-31T02:21:59.430Z,18.01
2022-07-31T02:24:25.935Z,17.86
2022-07-31T02:26:52.730Z,17.81
2022-07-31T02:29:20.372Z,18.00
2022-07-31T02:31:48.457Z,18.02
2022-07-31T02:34:30.785Z,18.20
2022-07-31T02:36:57.409Z,18.13
2022-07-31T02:39:30.509Z,18.21
2022-07-31T02:41:59.396Z,18.17
2022-07-31T02:44:27.070Z,18.14
2022-07-31T02:46:54.097Z,18.05
2022-07-31T02:49:20.746Z,18.13
2022-07-31T02:51:47.327Z,18.01
2022-07-31T02:54:13.839Z,18.15
2022-07-31T02:56:41.398Z,18.09
2022-07-31T02:59:07.888Z,17.97
2022-07-31T03:01:37.371Z,18.07
2022-07-31T03:04:03.993Z,18.24
2022-07-31T03:06:30.510Z,18.26
2022-07-31T03:08:57.002Z,18.09
2022-07-31T03:11:23.574Z,18.12
2022-07-31T03:13:50.988Z,18.12
2022-07-31T03:16:17.636Z,18.05
2022-07-31T03:18:44.445Z,18.17
2022-07-31T03:21:11.898Z,18.04
2022-07-31T03:23:39.245Z,18.02
2022-07-31T03:26:05.972Z,18.04
2022-07-31T03:28:34.784Z,17.91
2022-07-31T03:31:01.376Z,17.94
2022-07-31T03:33:28.213Z,17.94
2022-07-31T03:35:54.751Z,17.93
2022-07-31T03:38:38.633Z,17.88
2022-07-31T03:41:07.809Z,18.03
2022-07-31T03:43:46.845Z,18.06
2022-07-31T03:46:16.315Z,18.01
2022-07-31T03:48:42.795Z,17.99
2022-07-31T03:51:09.496Z,17.98
2022-07-31T03:53:36.016Z,17.87
2022-07-31T03:56:03.363Z,17.93
2022-07-31T03:58:29.967Z,17.94
2022-07-31T04:00:56.542Z,17.95
2022-07-31T04:03:31.172Z,17.90
2022-07-31T04:05:57.749Z,17.91
2022-07-31T04:08:24.242Z,17.79
2022-07-31T04:10:50.882Z,17.85
2022-07-31T04:13:17.474Z,17.86
2022-07-31T04:15:43.958Z,18.09
2022-07-31T04:18:11.673Z,18.10
2022-07-31T04:20:38.181Z,18.01
2022-07-31T04:23:04.715Z,17.92
2022-07-31T04:25:33.708Z,17.99
2022-07-31T04:28:01.450Z,18.00
2022-07-31T04:30:27.994Z,17.98
2022-07-31T04:32:54.535Z,17.89
2022-07-31T04:35:22.217Z,17.91
2022-07-31T04:37:48.788Z,17.97
2022-07-31T04:40:15.924Z,18.06
2022-07-31T04:43:02.040Z,18.09
2022-07-31T04:45:30.044Z,18.01
2022-07-31T04:47:56.520Z,18.02
2022-07-31T04:50:23.080Z,18.11
2022-07-31T04:52:50.062Z,18.19
2022-07-31T04:55:16.767Z,18.21
2022-07-31T04:57:43.308Z,18.24
2022-07-31T05:00:10.432Z,18.23
2022-07-31T05:02:37.348Z,18.15
2022-07-31T05:05:04.272Z,18.26
2022-07-31T05:07:30.830Z,18.35
2022-07-31T05:09:58.670Z,18.53
2022-07-31T05:12:26.146Z,18.47
2022-07-31T05:14:53.505Z,18.45
2022-07-31T05:17:20.007Z,18.36
2022-07-31T05:19:46.571Z,18.39
2022-07-31T05:22:13.055Z,18.38
2022-07-31T05:24:43.311Z,18.26
2022-07-31T05:27:09.881Z,18.24
2022-07-31T05:29:36.380Z,18.27
2022-07-31T05:32:02.926Z,18.37
2022-07-31T05:34:29.986Z,18.26
2022-07-31T05:36:57.224Z,18.41
2022-07-31T05:39:25.171Z,18.47
2022-07-31T05:41:52.799Z,18.41
2022-07-31T05:44:19.514Z,18.44
2022-07-31T05:46:46.084Z,18.52
2022-07-31T05:49:12.808Z,18.68
2022-07-31T05:51:43.079Z,18.55
2022-07-31T05:54:11.222Z,18.60
2022-07-31T05:56:37.783Z,18.70
2022-07-31T05:59:04.420Z,18.67
2022-07-31T06:01:31.000Z,18.73
2022-07-31T06:03:57.565Z,18.80
2022-07-31T06:06:24.070Z,18.74
2022-07-31T06:08:50.521Z,18.70
2022-07-31T06:11:17.161Z,18.77
2022-07-31T06:13:43.874Z,18.85
2022-07-31T06:16:14.625Z,18.77
2022-07-31T06:18:41.847Z,18.83
2022-07-31T06:21:08.462Z,18.99
2022-07-31T06:23:35.139Z,18.97
2022-07-31T06:26:01.678Z,19.05
2022-07-31T06:28:44.748Z,19.24
2022-07-31T06:31:19.398Z,19.19
2022-07-31T06:33:48.519Z,19.13
2022-07-31T06:36:16.444Z,19.26
2022-07-31T06:38:42.974Z,19.40
2022-07-31T06:41:09.553Z,19.33
2022-07-31T06:43:36.095Z,19.41
2022-07-31T06:46:02.702Z,19.28
2022-07-31T06:48:29.289Z,19.48
2022-07-31T06:53:44.919Z,19.29
2022-07-31T06:56:11.394Z,19.33
2022-07-31T06:58:38.062Z,19.37
2022-07-31T07:01:04.626Z,19.52
2022-07-31T07:03:31.123Z,19.54
2022-07-31T07:05:57.646Z,19.50
2022-07-31T07:08:27.170Z,19.56
2022-07-31T07:10:53.684Z,19.49
2022-07-31T07:13:20.402Z,19.50
2022-07-31T07:15:48.410Z,19.57
2022-07-31T07:18:15.125Z,19.55
2022-07-31T07:20:41.730Z,19.73
2022-07-31T07:23:08.256Z,19.81
2022-07-31T07:25:34.710Z,19.81
2022-07-31T07:28:01.195Z,19.77
2022-07-31T07:30:28.910Z,19.64
2022-07-31T07:32:55.390Z,19.71
2022-07-31T07:35:22.065Z,19.76
2022-07-31T07:37:48.603Z,19.68
2022-07-31T07:40:16.875Z,19.78
2022-07-31T07:42:43.392Z,19.94
2022-07-31T07:45:10.460Z,20.04
2022-07-31T07:48:05.450Z,20.11
2022-07-31T07:50:26.914Z,20.15
2022-07-31T07:52:55.886Z,20.19
2022-07-31T07:55:22.386Z,20.26
2022-07-31T07:57:49.124Z,20.04
2022-07-31T08:00:16.235Z,20.11
2022-07-31T08:02:44.746Z,20.17
2022-07-31T08:05:11.591Z,20.13
2022-07-31T08:07:41.782Z,20.02
2022-07-31T08:10:09.751Z,19.88
2022-07-31T08:12:36.389Z,19.85
2022-07-31T08:15:05.608Z,19.97
2022-07-31T08:17:32.084Z,20.00
2022-07-31T08:19:58.587Z,20.01
2022-07-31T08:22:26.096Z,20.11
2022-07-31T08:24:52.666Z,20.27
2022-07-31T08:27:34.261Z,20.40
2022-07-31T08:30:07.798Z,20.19
2022-07-31T08:32:34.404Z,20.17
2022-07-31T08:35:00.965Z,20.19
2022-07-31T08:37:51.275Z,20.25
2022-07-31T08:40:14.019Z,20.35
2022-07-31T08:42:40.509Z,20.38
2022-07-31T08:45:08.054Z,20.55
2022-07-31T08:47:35.913Z,20.60
2022-07-31T08:50:05.560Z,20.61
2022-07-31T08:52:34.138Z,20.76
2022-07-31T08:55:01.654Z,20.87
2022-07-31T08:57:31.371Z,20.95
2022-07-31T08:59:57.863Z,21.05
2022-07-31T09:02:24.454Z,21.17
2022-07-31T09:04:52.829Z,21.04
2022-07-31T09:07:22.793Z,21.02
2022-07-31T09:09:52.194Z,20.78
2022-07-31T09:12:32.463Z,20.75
2022-07-31T09:15:00.910Z,20.88
2022-07-31T09:17:32.616Z,21.02
2022-07-31T09:19:59.639Z,21.03
2022-07-31T09:22:28.268Z,20.98
2022-07-31T09:25:00.690Z,21.06
2022-07-31T09:27:28.525Z,20.95
2022-07-31T09:29:56.239Z,20.85
2022-07-31T09:32:23.011Z,20.95
2022-07-31T09:34:49.681Z,20.89
2022-07-31T09:37:21.174Z,21.15
2022-07-31T09:39:55.470Z,21.42
2022-07-31T09:42:25.140Z,21.62
2022-07-31T09:44:52.018Z,21.64
2022-07-31T09:47:32.191Z,21.71
2022-07-31T09:50:03.855Z,21.57
2022-07-31T09:52:31.480Z,21.51
2022-07-31T09:55:17.069Z,21.59
2022-07-31T09:57:57.857Z,21.57
2022-07-31T10:00:25.363Z,21.46
2022-07-31T10:02:54.811Z,21.56
2022-07-31T10:05:26.414Z,21.80
2022-07-31T10:07:54.321Z,21.75
2022-07-31T10:10:22.138Z,21.81
2022-07-31T10:12:53.143Z,21.43
2022-07-31T10:15:20.995Z,21.49
2022-07-31T10:17:49.768Z,21.64
2022-07-31T10:20:22.128Z,21.69
2022-07-31T10:22:53.117Z,21.76
2022-07-31T10:25:25.271Z,21.74
2022-07-31T10:27:54.051Z,21.75
2022-07-31T10:30:24.809Z,21.90
2022-07-31T10:32:54.300Z,21.77
2022-07-31T10:35:22.644Z,21.82
2022-07-31T10:38:15.891Z,21.70
2022-07-31T10:40:45.418Z,21.49
2022-07-31T10:43:26.660Z,21.65
2022-07-31T10:45:55.092Z,21.64
2022-07-31T10:48:22.367Z,21.70
2022-07-31T10:51:00.123Z,21.76
2022-07-31T10:53:51.169Z,21.56
2022-07-31T10:56:13.906Z,21.76
2022-07-31T10:58:50.262Z,21.66
2022-07-31T11:01:17.928Z,21.67
2022-07-31T11:03:46.877Z,21.73
2022-07-31T11:06:16.120Z,21.89
2022-07-31T11:08:51.526Z,21.89
2022-07-31T11:11:18.492Z,21.85
2022-07-31T11:13:55.363Z,21.77
2022-07-31T11:16:22.343Z,21.72
2022-07-31T11:19:04.120Z,21.71
2022-07-31T11:21:40.149Z,21.82
2022-07-31T11:24:18.784Z,21.69
2022-07-31T11:26:57.534Z,21.74
2022-07-31T11:30:01.611Z,21.96
2022-07-31T11:32:25.925Z,22.02
2022-07-31T11:34:58.028Z,22.09
2022-07-31T11:37:45.341Z,21.98
2022-07-31T11:40:17.721Z,21.82
2022-07-31T11:42:55.883Z,21.82
2022-07-31T11:45:33.821Z,21.96
2022-07-31T11:48:11.465Z,21.81
2022-07-31T11:50:44.215Z,21.93
2022-07-31T11:53:11.643Z,21.76
2022-07-31T11:55:57.517Z,21.60
2022-07-31T11:58:28.457Z,21.83
2022-07-31T12:01:00.790Z,21.70
2022-07-31T12:03:32.945Z,21.69
2022-07-31T12:05:59.850Z,21.79
2022-07-31T12:08:29.822Z,21.78
2022-07-31T12:11:00.861Z,21.81
2022-07-31T12:13:28.350Z,21.75
2022-07-31T12:16:05.226Z,21.85
2022-07-31T12:18:45.842Z,21.82
2022-07-31T12:21:12.501Z,21.83
2022-07-31T12:23:49.877Z,21.96
2022-07-31T12:26:29.573Z,21.75
2022-07-31T12:29:17.585Z,21.55
2022-07-31T12:31:52.275Z,21.52
2022-07-31T12:34:35.895Z,21.57
2022-07-31T12:37:11.085Z,21.67
2022-07-31T12:40:00.171Z,21.27
2022-07-31T12:42:40.838Z,21.42
2022-07-31T12:45:18.210Z,21.32
2022-07-31T12:47:51.340Z,21.15
2022-07-31T12:50:19.142Z,21.20
2022-07-31T12:52:45.664Z,20.95
2022-07-31T12:55:12.284Z,21.29
2022-07-31T12:57:47.831Z,21.17
2022-07-31T13:00:23.473Z,21.10
2022-07-31T13:02:51.821Z,20.96
2022-07-31T13:05:18.390Z,20.71
2022-07-31T13:07:44.954Z,20.65
2022-07-31T13:10:20.143Z,20.85
2022-07-31T13:12:51.643Z,20.84
2022-07-31T13:15:19.999Z,20.92
2022-07-31T13:17:50.418Z,21.21
2022-07-31T13:20:17.806Z,21.34
2022-07-31T13:22:44.386Z,21.43
2022-07-31T13:25:10.891Z,21.41
2022-07-31T13:27:37.569Z,21.44
2022-07-31T13:30:04.768Z,21.64
2022-07-31T13:32:31.806Z,21.69
2022-07-31T13:35:27.192Z,21.84
2022-07-31T13:37:46.558Z,21.78
2022-07-31T13:40:13.740Z,21.75
2022-07-31T13:42:40.425Z,21.71
2022-07-31T13:45:08.516Z,21.82
2022-07-31T13:47:50.677Z,21.96
2022-07-31T13:50:17.645Z,22.05
2022-07-31T13:52:44.151Z,22.06
2022-07-31T13:55:10.799Z,21.85
2022-07-31T13:57:37.288Z,21.79
2022-07-31T14:00:04.280Z,21.94
2022-07-31T14:02:33.064Z,22.15
2022-07-31T14:04:59.599Z,22.19
2022-07-31T14:07:48.228Z,22.42
2022-07-31T14:10:18.477Z,22.50
2022-07-31T14:12:47.223Z,22.57
2022-07-31T14:15:13.751Z,22.49
2022-07-31T14:17:40.302Z,22.25
2022-07-31T14:20:07.286Z,22.32
2022-07-31T14:22:35.162Z,22.42
2022-07-31T14:25:01.742Z,22.39
2022-07-31T14:27:28.291Z,22.36
2022-07-31T14:29:55.235Z,22.36
2022-07-31T14:32:22.380Z,22.11
2022-07-31T14:34:50.262Z,22.13
2022-07-31T14:37:17.045Z,21.91
2022-07-31T14:39:44.007Z,22.00
2022-07-31T14:42:13.565Z,21.90
2022-07-31T14:44:41.974Z,21.99
2022-07-31T14:47:12.481Z,22.12
2022-07-31T14:50:07.493Z,22.06
2022-07-31T14:52:27.828Z,22.22
2022-07-31T14:54:55.713Z,22.21
2022-07-31T14:57:22.514Z,22.27
2022-07-31T14:59:50.436Z,22.24
2022-07-31T15:02:21.943Z,22.63
2022-07-31T15:04:48.971Z,22.79
2022-07-31T15:07:34.178Z,22.80
2022-07-31T15:10:03.965Z,22.92
2022-07-31T15:12:30.431Z,23.09
2022-07-31T15:14:56.899Z,23.10
2022-07-31T15:17:23.672Z,23.12
2022-07-31T15:19:50.280Z,23.01
2022-07-31T15:22:19.472Z,23.08
2022-07-31T15:24:48.274Z,23.18
2022-07-31T15:27:16.054Z,23.13
2022-07-31T15:30:03.551Z,23.25
2022-07-31T15:32:29.763Z,23.03
2022-07-31T15:34:56.355Z,23.12
2022-07-31T15:37:23.017Z,22.96
2022-07-31T15:40:01.369Z,22.99
2022-07-31T15:42:30.082Z,22.89
2022-07-31T15:44:56.635Z,22.99
2022-07-31T15:47:23.163Z,23.05
2022-07-31T15:49:49.726Z,23.02
2022-07-31T15:52:19.457Z,22.84
2022-07-31T15:54:46.646Z,22.82
2022-07-31T15:57:14.640Z,22.82
2022-07-31T15:59:48.637Z,22.56
2022-07-31T16:02:16.867Z,22.88
2022-07-31T16:04:51.591Z,22.77
2022-07-31T16:08:29.022Z,22.74
2022-07-31T16:10:17.480Z,22.57
2022-07-31T16:12:48.549Z,22.48
2022-07-31T16:15:16.708Z,22.34
2022-07-31T16:17:43.752Z,22.09
2022-07-31T16:20:20.600Z,22.15
2022-07-31T16:23:01.509Z,22.20
2022-07-31T16:25:57.085Z,22.04
2022-07-31T16:28:27.704Z,21.76
2022-07-31T16:30:54.204Z,21.93
2022-07-31T16:33:21.335Z,21.91
2022-07-31T16:35:47.839Z,21.87
2022-07-31T16:38:15.386Z,21.78
2022-07-31T16:40:42.037Z,21.83
2022-07-31T16:43:48.398Z,21.79
2022-07-31T16:45:56.531Z,21.77
2022-07-31T16:48:23.326Z,21.63
2022-07-31T16:50:54.358Z,21.28
2022-07-31T16:54:13.514Z,21.48
2022-07-31T16:56:16.631Z,21.46
2022-07-31T16:58:44.185Z,21.58
2022-07-31T17:01:57.000Z,21.59
2022-07-31T17:04:03.099Z,21.31
2022-07-31T17:06:37.542Z,21.39
2022-07-31T17:09:16.739Z,21.28
2022-07-31T17:11:47.638Z,21.23
2022-07-31T17:14:15.451Z,21.36
2022-07-31T17:16:46.830Z,21.57
2022-07-31T17:19:14.431Z,21.60
2022-07-31T17:21:43.948Z,21.51
2022-07-31T17:24:20.364Z,21.37
2022-07-31T17:26:48.963Z,21.36
2022-07-31T17:29:15.556Z,21.35
2022-07-31T17:31:44.047Z,21.28
2022-07-31T17:34:10.679Z,21.38
2022-07-31T17:36:37.236Z,21.07
2022-07-31T17:39:04.982Z,20.77
2022-07-31T17:41:32.716Z,20.99
2022-07-31T17:43:59.622Z,20.99
2022-07-31T17:46:34.741Z,20.89
2022-07-31T17:49:11.607Z,20.53
2022-07-31T17:51:59.270Z,20.57
2022-07-31T17:54:28.718Z,20.46
2022-07-31T17:56:56.101Z,20.47
2022-07-31T17:59:26.337Z,20.36
2022-07-31T18:01:59.438Z,20.60
2022-07-31T18:04:27.847Z,20.40
2022-07-31T18:06:59.218Z,20.35
2022-07-31T18:09:26.699Z,20.22
2022-07-31T18:11:54.132Z,20.09
2022-07-31T18:14:20.718Z,20.14
2022-07-31T18:16:51.732Z,19.93
2022-07-31T18:19:21.717Z,19.64
2022-07-31T18:21:49.499Z,19.83
2022-07-31T18:24:16.042Z,19.70
2022-07-31T18:26:42.531Z,19.89
2022-07-31T18:29:09.184Z,19.73
2022-07-31T18:31:36.183Z,19.62
2022-07-31T18:34:05.303Z,19.58
2022-07-31T18:36:33.253Z,19.53
2022-07-31T18:39:00.428Z,19.48
2022-07-31T18:41:28.013Z,19.27
2022-07-31T18:43:55.247Z,19.03
2022-07-31T18:46:24.244Z,19.09
2022-07-31T18:48:59.096Z,18.99
2022-07-31T18:51:30.541Z,19.00
2022-07-31T18:53:57.809Z,18.82
2022-07-31T18:56:25.342Z,18.88
2022-07-31T18:58:54.128Z,18.71
2022-07-31T19:01:24.169Z,18.61
2022-07-31T19:03:51.747Z,18.50
2022-07-31T19:06:19.509Z,18.47
2022-07-31T19:08:46.170Z,18.58
2022-07-31T19:11:12.929Z,18.57
2022-07-31T19:13:39.527Z,18.65
2022-07-31T19:16:06.863Z,18.57
2022-07-31T19:18:33.694Z,18.40
2022-07-31T19:21:17.677Z,18.38
2022-07-31T19:23:48.948Z,18.33
2022-07-31T19:26:19.319Z,18.25
2022-07-31T19:28:48.247Z,18.33
2022-07-31T19:31:14.806Z,18.09
2022-07-31T19:33:41.465Z,17.90
2022-07-31T19:36:10.985Z,17.82
2022-07-31T19:38:37.470Z,17.64
2022-07-31T19:41:05.702Z,17.70
2022-07-31T19:43:33.101Z,17.54
2022-07-31T19:46:11.409Z,17.54
2022-07-31T19:48:46.055Z,17.36
2022-07-31T19:51:14.344Z,17.20
2022-07-31T19:53:41.735Z,17.16
2022-07-31T19:56:09.050Z,17.09
2022-07-31T19:58:36.286Z,17.17
2022-07-31T20:01:04.967Z,17.06
2022-07-31T20:03:31.790Z,17.10
2022-07-31T20:05:58.907Z,17.04
2022-07-31T20:08:25.510Z,17.06
2022-07-31T20:10:53.176Z,17.07
2022-07-31T20:13:19.722Z,17.03
2022-07-31T20:15:51.657Z,16.89
2022-07-31T20:18:27.324Z,16.82
2022-07-31T20:20:57.259Z,16.72
2022-07-31T20:23:24.394Z,16.63
2022-07-31T20:25:51.190Z,16.76
2022-07-31T20:28:18.340Z,16.66
2022-07-31T20:30:44.828Z,16.87
2022-07-31T20:33:13.256Z,16.88
2022-07-31T20:35:47.913Z,16.83
2022-07-31T20:38:29.056Z,16.69
2022-07-31T20:40:56.229Z,16.54
2022-07-31T20:43:30.549Z,16.62
2022-07-31T20:45:59.134Z,16.34
2022-07-31T20:48:33.058Z,16.48
2022-07-31T20:51:02.466Z,16.43
2022-07-31T20:53:31.099Z,16.33
2022-07-31T20:55:58.833Z,16.25
2022-07-31T20:58:25.979Z,16.25
2022-07-31T21:00:53.489Z,16.28
2022-07-31T21:03:20.587Z,16.23
2022-07-31T21:05:47.193Z,16.08
2022-07-31T21:08:14.108Z,16.06
2022-07-31T21:10:40.696Z,15.99
2022-07-31T21:13:07.271Z,15.99
2022-07-31T21:15:41.729Z,15.87
2022-07-31T21:18:14.162Z,15.79
2022-07-31T21:20:51.289Z,15.80
2022-07-31T21:23:32.195Z,15.79
2022-07-31T21:25:59.078Z,15.69
2022-07-31T21:28:28.230Z,15.72
2022-07-31T21:30:56.600Z,15.51
2022-07-31T21:33:24.999Z,15.52
2022-07-31T21:35:52.282Z,15.43
2022-07-31T21:38:19.801Z,15.54
2022-07-31T21:40:47.059Z,15.37
2022-07-31T21:43:16.867Z,15.37
2022-07-31T21:45:51.400Z,15.53
2022-07-31T21:48:25.308Z,15.52
2022-07-31T21:50:53.271Z,15.43
2022-07-31T21:53:20.399Z,15.36
2022-07-31T21:55:46.907Z,15.29
2022-07-31T21:58:13.545Z,15.31
2022-07-31T22:00:40.083Z,15.43
2022-07-31T22:03:07.312Z,15.43
2022-07-31T22:05:52.670Z,15.56
2022-07-31T22:08:19.765Z,15.66
2022-07-31T22:10:47.051Z,15.63
2022-07-31T22:13:14.300Z,15.60
2022-07-31T22:15:51.509Z,15.64
2022-07-31T22:18:33.151Z,15.59
2022-07-31T22:21:01.262Z,15.50
2022-07-31T22:23:28.579Z,15.42
2022-07-31T22:25:56.281Z,15.26
2022-07-31T22:28:24.883Z,15.20
2022-07-31T22:30:52.633Z,15.14
2022-07-31T22:33:20.259Z,15.33
2022-07-31T22:35:59.572Z,15.24
2022-07-31T22:38:32.265Z,15.24
2022-07-31T22:40:59.852Z,15.14
2022-07-31T22:44:11.287Z,15.30
2022-07-31T22:46:17.554Z,15.19
2022-07-31T22:48:45.579Z,15.24
2022-07-31T22:51:14.301Z,15.06
2022-07-31T22:53:49.276Z,14.90
2022-07-31T22:56:16.877Z,14.83
2022-07-31T22:58:43.455Z,14.91
2022-07-31T23:01:09.947Z,14.90
2022-07-31T23:03:36.788Z,14.99
2022-07-31T23:06:29.784Z,14.95
2022-07-31T23:08:53.751Z,14.91
2022-07-31T23:11:21.863Z,14.88
2022-07-31T23:13:48.516Z,14.81
2022-07-31T23:16:15.045Z,14.69
2022-07-31T23:18:41.643Z,14.66
2022-07-31T23:21:08.420Z,14.56
2022-07-31T23:23:36.241Z,14.58
2022-07-31T23:26:02.836Z,14.32
2022-07-31T23:28:29.300Z,14.41
2022-07-31T23:30:55.783Z,14.41
2022-07-31T23:33:22.301Z,14.51
2022-07-31T23:35:48.761Z,14.49
2022-07-31T23:38:15.231Z,14.51
2022-07-31T23:40:41.762Z,14.52
2022-07-31T23:43:08.403Z,14.40
2022-07-31T23:45:37.661Z,14.32
2022-07-31T23:48:05.197Z,14.24
2022-07-31T23:50:31.690Z,14.28
2022-07-31T23:52:58.224Z,14.23
2022-07-31T23:55:24.732Z,14.32
2022-07-31T23:57:51.375Z,14.18
